createdAt,value
2018-01-02T00:02:04.229Z,82.55
2018-01-02T00:04:31.781Z,83.23
2018-01-02T00:06:59.307Z,83.03
2018-01-02T00:09:26.822Z,82.29
2018-01-02T00:11:54.341Z,81.47
2018-01-02T00:14:21.897Z,81.72
2018-01-02T00:16:49.409Z,81.71
2018-01-02T00:19:16.936Z,81.92
2018-01-02T00:21:44.466Z,81.33
2018-01-02T00:24:12.038Z,80.89
2018-01-02T00:26:39.567Z,81.32
2018-01-02T00:29:07.118Z,81.71
2018-01-02T00:31:34.664Z,81.50
2018-01-02T00:34:02.222Z,80.61
2018-01-02T00:36:29.753Z,81.07
2018-01-02T00:38:57.281Z,80.85
2018-01-02T00:41:24.846Z,80.51
2018-01-02T00:43:52.386Z,80.30
2018-01-02T00:46:19.913Z,80.83
2018-01-02T00:48:47.438Z,80.78
2018-01-02T00:51:15.198Z,80.69
2018-01-02T00:53:42.733Z,81.42
2018-01-02T00:56:10.272Z,82.05
2018-01-02T00:58:37.796Z,82.78
2018-01-02T01:01:05.331Z,83.24
2018-01-02T01:03:32.971Z,83.78
2018-01-02T01:06:00.536Z,83.71
2018-01-02T01:08:28.083Z,83.51
2018-01-02T01:10:55.591Z,83.35
2018-01-02T01:13:23.108Z,82.64
2018-01-02T01:15:50.637Z,82.36
2018-01-02T01:18:18.181Z,82.35
2018-01-02T01:20:45.748Z,81.29
2018-01-02T01:23:13.306Z,80.88
2018-01-02T01:25:40.823Z,80.65
2018-01-02T01:28:08.343Z,80.83
2018-01-02T01:30:35.876Z,79.88
2018-01-02T01:33:03.417Z,79.31
2018-01-02T01:35:30.952Z,79.20
2018-01-02T01:37:58.478Z,78.34
2018-01-02T01:40:26.011Z,77.71
2018-01-02T01:42:53.527Z,76.96
2018-01-02T01:45:21.160Z,76.31
2018-01-02T01:47:48.677Z,76.07
2018-01-02T01:50:16.218Z,75.90
2018-01-02T01:52:43.732Z,75.66
2018-01-02T01:55:11.261Z,76.17
2018-01-02T01:57:38.786Z,76.75
2018-01-02T02:00:06.427Z,76.30
2018-01-02T02:02:33.958Z,76.18
2018-01-02T02:05:01.653Z,76.70
2018-01-02T02:07:29.185Z,76.76
2018-01-02T02:09:56.711Z,76.28
2018-01-02T02:12:24.269Z,76.66
2018-01-02T02:14:51.797Z,77.04
2018-01-02T02:17:19.322Z,76.50
2018-01-02T02:19:46.838Z,77.87
2018-01-02T02:22:14.368Z,77.58
2018-01-02T02:24:41.882Z,78.66
2018-01-02T02:27:09.408Z,78.38
2018-01-02T02:29:36.948Z,78.96
2018-01-02T02:32:04.484Z,79.18
2018-01-02T02:34:32.039Z,79.91
2018-01-02T02:36:59.542Z,80.16
2018-01-02T02:39:27.068Z,80.40
2018-01-02T02:41:54.603Z,80.62
2018-01-02T02:44:22.103Z,81.48
2018-01-02T02:46:49.636Z,82.13
2018-01-02T02:49:17.156Z,82.16
2018-01-02T02:51:45.529Z,82.24
2018-01-02T02:54:13.047Z,82.76
2018-01-02T02:56:40.601Z,83.56
2018-01-02T02:59:08.129Z,82.99
2018-01-02T03:01:35.687Z,83.33
2018-01-02T03:04:03.205Z,82.71
2018-01-02T03:06:30.722Z,82.87
2018-01-02T03:08:58.243Z,83.06
2018-01-02T03:11:25.769Z,83.45
2018-01-02T03:13:53.298Z,84.10
2018-01-02T03:16:20.834Z,84.18
2018-01-02T03:18:48.359Z,84.42
2018-01-02T03:21:15.889Z,84.79
2018-01-02T03:23:43.452Z,85.22
2018-01-02T03:26:10.962Z,85.20
2018-01-02T03:28:38.498Z,84.51
2018-01-02T03:31:06.024Z,84.71
2018-01-02T03:33:33.538Z,84.92
2018-01-02T03:36:01.067Z,85.46
2018-01-02T03:38:28.704Z,85.63
2018-01-02T03:40:56.238Z,86.14
2018-01-02T03:43:23.768Z,86.72
2018-01-02T03:45:51.287Z,88.13
2018-01-02T03:48:18.801Z,88.37
2018-01-02T03:50:46.329Z,89.30
2018-01-02T03:53:13.872Z,89.44
2018-01-02T03:55:41.397Z,89.99
2018-01-02T03:58:08.949Z,89.90
2018-01-02T04:00:36.486Z,89.91
2018-01-02T04:03:04.011Z,89.37
2018-01-02T04:05:31.526Z,88.80
2018-01-02T04:07:59.043Z,89.14
2018-01-02T04:10:26.588Z,89.11
2018-01-02T04:12:54.124Z,89.17
2018-01-02T04:15:21.657Z,88.78
2018-01-02T04:17:49.179Z,89.97
2018-01-02T04:20:16.698Z,90.62
2018-01-02T04:22:44.204Z,91.05
2018-01-02T04:25:11.716Z,92.03
2018-01-02T04:27:39.253Z,92.84
2018-01-02T04:30:06.781Z,92.53
2018-01-02T04:32:34.310Z,92.49
2018-01-02T04:35:01.813Z,93.05
2018-01-02T04:37:29.328Z,93.05
2018-01-02T04:39:56.862Z,92.85
2018-01-02T04:42:24.533Z,93.01
2018-01-02T04:44:52.098Z,92.80
2018-01-02T04:47:19.659Z,92.04
2018-01-02T04:49:47.210Z,92.38
2018-01-02T04:52:14.733Z,93.10
2018-01-02T04:54:42.288Z,93.59
2018-01-02T04:57:09.821Z,93.71
2018-01-02T04:59:41.234Z,92.26
2018-01-02T05:02:08.735Z,93.15
2018-01-02T05:04:36.306Z,92.48
2018-01-02T05:07:03.849Z,93.36
2018-01-02T05:09:31.362Z,93.62
2018-01-02T05:11:58.883Z,93.03
2018-01-02T05:14:26.419Z,91.69
2018-01-02T05:16:53.938Z,91.20
2018-01-02T05:19:21.469Z,91.30
2018-01-02T05:21:49.019Z,91.40
2018-01-02T05:24:16.532Z,92.12
2018-01-02T05:26:44.052Z,92.26
2018-01-02T05:29:11.567Z,91.96
2018-01-02T05:31:39.077Z,92.03
2018-01-02T05:34:06.595Z,91.80
2018-01-02T05:36:34.128Z,92.74
2018-01-02T05:39:01.648Z,91.65
2018-01-02T05:41:29.165Z,91.44
2018-01-02T05:43:56.684Z,94.17
2018-01-02T05:46:24.224Z,94.20
2018-01-02T05:48:51.755Z,93.95
2018-01-02T05:51:19.304Z,92.61
2018-01-02T05:53:47.522Z,93.14
2018-01-02T05:56:15.298Z,92.60
2018-01-02T05:58:42.848Z,93.22
2018-01-02T06:01:10.367Z,92.79
2018-01-02T06:03:37.922Z,92.21
2018-01-02T06:06:05.429Z,92.54
2018-01-02T06:08:32.943Z,91.37
2018-01-02T06:11:00.464Z,91.21
2018-01-02T06:13:27.999Z,91.46
2018-01-02T06:15:55.518Z,90.82
2018-01-02T06:18:23.048Z,91.83
2018-01-02T06:20:50.597Z,91.66
2018-01-02T06:23:18.112Z,91.14
2018-01-02T06:25:45.639Z,90.50
2018-01-02T06:28:13.163Z,91.84
2018-01-02T06:30:40.679Z,92.23
2018-01-02T06:33:08.214Z,92.05
2018-01-02T06:35:35.772Z,92.11
2018-01-02T06:38:03.288Z,92.53
2018-01-02T06:40:30.789Z,92.52
2018-01-02T06:42:58.328Z,92.42
2018-01-02T06:45:25.857Z,92.50
2018-01-02T06:47:53.384Z,93.17
2018-01-02T06:50:20.967Z,93.78
2018-01-02T06:52:48.493Z,93.29
2018-01-02T06:55:16.017Z,92.99
2018-01-02T06:57:43.553Z,93.42
2018-01-02T07:00:11.243Z,94.29
2018-01-02T07:02:38.788Z,94.20
2018-01-02T07:05:06.325Z,94.28
2018-01-02T07:07:33.898Z,93.89
2018-01-02T07:10:01.453Z,94.42
2018-01-02T07:12:28.976Z,94.53
2018-01-02T07:14:56.520Z,94.11
2018-01-02T07:17:24.036Z,94.11
2018-01-02T07:19:51.565Z,94.04
2018-01-02T07:22:19.163Z,94.00
2018-01-02T07:24:46.823Z,93.38
2018-01-02T07:27:14.348Z,93.41
2018-01-02T07:29:41.864Z,93.28
2018-01-02T07:32:09.374Z,93.53
2018-01-02T07:34:36.942Z,93.10
2018-01-02T07:37:04.464Z,92.37
2018-01-02T07:39:32.008Z,92.03
2018-01-02T07:41:59.548Z,92.61
2018-01-02T07:44:27.064Z,93.19
2018-01-02T07:46:54.692Z,93.29
2018-01-02T07:49:22.228Z,92.68
2018-01-02T07:51:49.752Z,93.05
2018-01-02T07:54:17.317Z,93.81
2018-01-02T07:56:44.849Z,93.44
2018-01-02T07:59:12.359Z,93.35
2018-01-02T08:01:39.904Z,93.66
2018-01-02T08:04:07.424Z,93.53
2018-01-02T08:06:34.986Z,93.49
2018-01-02T08:09:02.520Z,93.09
2018-01-02T08:11:30.052Z,93.52
2018-01-02T08:13:57.607Z,93.11
2018-01-02T08:16:25.163Z,93.28
2018-01-02T08:18:52.694Z,93.06
2018-01-02T08:21:20.325Z,92.67
2018-01-02T08:23:47.845Z,92.32
2018-01-02T08:26:15.638Z,91.83
2018-01-02T08:28:43.180Z,91.45
2018-01-02T08:31:10.704Z,91.71
2018-01-02T08:33:38.200Z,91.26
2018-01-02T08:36:05.745Z,91.27
2018-01-02T08:38:33.270Z,91.93
2018-01-02T08:41:00.856Z,92.28
2018-01-02T08:43:28.369Z,92.36
2018-01-02T08:45:55.908Z,92.40
2018-01-02T08:48:23.442Z,92.18
2018-01-02T08:50:51.009Z,91.56
2018-01-02T08:53:18.534Z,90.43
2018-01-02T08:55:46.080Z,90.18
2018-01-02T08:58:13.604Z,89.47
2018-01-02T09:00:41.163Z,89.31
2018-01-02T09:03:08.700Z,88.84
2018-01-02T09:05:36.225Z,88.28
2018-01-02T09:08:03.760Z,88.56
2018-01-02T09:10:31.295Z,88.14
2018-01-02T09:12:58.863Z,87.46
2018-01-02T09:15:26.400Z,87.19
2018-01-02T09:17:53.940Z,86.91
2018-01-02T09:20:21.466Z,87.30
2018-01-02T09:22:49.025Z,87.79
2018-01-02T09:25:16.535Z,88.23
2018-01-02T09:27:44.073Z,87.00
2018-01-02T09:30:11.655Z,87.99
2018-01-02T09:32:39.189Z,87.12
2018-01-02T09:35:06.735Z,86.97
2018-01-02T09:37:34.266Z,86.80
2018-01-02T09:40:01.802Z,86.69
2018-01-02T09:42:29.344Z,87.01
2018-01-02T09:44:56.991Z,87.06
2018-01-02T09:47:24.525Z,85.82
2018-01-02T09:49:52.070Z,86.19
2018-01-02T09:52:19.610Z,84.18
2018-01-02T09:54:47.138Z,85.17
2018-01-02T09:57:14.660Z,84.56
2018-01-02T09:59:42.193Z,85.03
2018-01-02T10:02:09.716Z,85.38
2018-01-02T10:04:37.431Z,85.84
2018-01-02T10:07:05.380Z,84.77
2018-01-02T10:09:32.923Z,84.99
2018-01-02T10:12:00.455Z,84.92
2018-01-02T10:14:27.973Z,83.27
2018-01-02T10:16:55.495Z,82.61
2018-01-02T10:19:23.044Z,83.29
2018-01-02T10:21:50.615Z,76.20
2018-01-02T10:24:18.154Z,66.50
2018-01-02T10:26:45.685Z,62.31
2018-01-02T10:29:13.219Z,67.61
2018-01-02T10:31:40.754Z,69.76
2018-01-02T10:34:08.283Z,70.07
2018-01-02T10:36:35.801Z,69.64
2018-01-02T10:39:03.339Z,70.80
2018-01-02T10:41:30.861Z,72.58
2018-01-02T10:43:58.376Z,68.64
2018-01-02T10:46:25.948Z,68.96
2018-01-02T10:48:53.479Z,66.82
2018-01-02T10:51:21.005Z,66.55
2018-01-02T10:53:48.535Z,65.70
2018-01-02T10:56:16.100Z,60.19
2018-01-02T10:58:43.624Z,61.22
2018-01-02T11:01:11.151Z,62.97
2018-01-02T11:03:38.693Z,64.99
2018-01-02T11:06:06.226Z,64.04
2018-01-02T11:08:33.745Z,65.60
2018-01-02T11:11:07.014Z,66.37
2018-01-02T11:13:40.279Z,66.75
2018-01-02T11:16:07.810Z,66.65
2018-01-02T11:18:35.335Z,64.85
2018-01-02T11:21:02.875Z,61.61
2018-01-02T11:23:38.194Z,62.52
2018-01-02T11:26:05.920Z,58.45
2018-01-02T11:28:33.494Z,64.99
2018-01-02T11:31:01.140Z,66.30
2018-01-02T11:33:28.703Z,59.18
2018-01-02T11:35:56.246Z,62.58
2018-01-02T11:38:23.829Z,61.79
2018-01-02T11:40:51.390Z,64.97
2018-01-02T11:43:18.919Z,66.49
2018-01-02T11:45:46.475Z,67.38
2018-01-02T11:48:13.981Z,67.51
2018-01-02T11:50:41.500Z,67.67
2018-01-02T11:53:09.055Z,67.80
2018-01-02T11:55:36.579Z,70.13
2018-01-02T11:58:04.123Z,68.07
2018-01-02T12:00:31.649Z,71.04
2018-01-02T12:02:59.169Z,73.40
2018-01-02T12:05:26.691Z,72.17
2018-01-02T12:07:54.220Z,72.92
2018-01-02T12:10:21.747Z,71.93
2018-01-02T12:12:49.304Z,70.00
2018-01-02T12:15:16.850Z,70.75
2018-01-02T12:17:44.360Z,65.17
2018-01-02T12:20:11.906Z,69.95
2018-01-02T12:22:39.469Z,65.72
2018-01-02T12:25:07.015Z,67.45
2018-01-02T12:27:34.558Z,66.24
2018-01-02T12:30:02.143Z,64.59
2018-01-02T12:32:29.656Z,68.00
2018-01-02T12:34:57.189Z,69.20
2018-01-02T12:37:24.783Z,71.88
2018-01-02T12:39:52.311Z,71.13
2018-01-02T12:42:19.840Z,71.59
2018-01-02T12:44:47.356Z,72.17
2018-01-02T12:47:14.889Z,73.58
2018-01-02T12:49:42.421Z,72.79
2018-01-02T12:52:10.029Z,72.55
2018-01-02T12:54:37.559Z,73.51
2018-01-02T12:57:05.106Z,72.13
2018-01-02T12:59:32.627Z,72.77
2018-01-02T13:02:00.169Z,72.83
2018-01-02T13:04:27.733Z,69.90
2018-01-02T13:06:55.280Z,70.08
2018-01-02T13:09:22.814Z,71.19
2018-01-02T13:11:50.370Z,71.99
2018-01-02T13:14:17.905Z,71.86
2018-01-02T13:16:45.469Z,73.17
2018-01-02T13:19:12.995Z,73.07
2018-01-02T13:21:40.507Z,74.35
2018-01-02T13:24:08.068Z,74.74
2018-01-02T13:26:35.714Z,74.65
2018-01-02T13:29:03.273Z,75.50
2018-01-02T13:31:30.795Z,73.41
2018-01-02T13:33:58.351Z,72.08
2018-01-02T13:36:25.897Z,71.58
2018-01-02T13:38:53.422Z,71.33
2018-01-02T13:41:20.952Z,73.67
2018-01-02T13:43:48.511Z,74.53
2018-01-02T13:46:16.246Z,75.78
2018-01-02T13:48:43.795Z,74.73
2018-01-02T13:51:11.346Z,75.18
2018-01-02T13:53:38.890Z,74.79
2018-01-02T13:56:06.430Z,76.72
2018-01-02T13:58:33.950Z,77.30
2018-01-02T14:01:01.507Z,76.62
2018-01-02T14:03:29.049Z,76.47
2018-01-02T14:05:56.590Z,76.09
2018-01-02T14:08:24.115Z,75.60
2018-01-02T14:10:51.625Z,76.77
2018-01-02T14:13:19.162Z,76.17
2018-01-02T14:15:46.685Z,74.63
2018-01-02T14:18:14.209Z,75.79
2018-01-02T14:20:41.736Z,74.66
2018-01-02T14:23:09.256Z,75.70
2018-01-02T14:25:36.780Z,75.86
2018-01-02T14:28:04.326Z,74.24
2018-01-02T14:30:31.853Z,76.26
2018-01-02T14:32:59.400Z,74.94
2018-01-02T14:35:26.935Z,73.90
2018-01-02T14:37:54.477Z,74.84
2018-01-02T14:40:22.009Z,73.58
2018-01-02T14:42:49.549Z,74.51
2018-01-02T14:45:17.080Z,72.93
2018-01-02T14:47:44.601Z,74.01
2018-01-02T14:50:12.156Z,73.83
2018-01-02T14:52:39.674Z,73.84
2018-01-02T14:55:07.204Z,74.43
2018-01-02T14:57:34.717Z,75.36
2018-01-02T15:00:02.216Z,74.72
2018-01-02T15:02:29.789Z,75.19
2018-01-02T15:04:57.347Z,74.97
2018-01-02T15:07:24.871Z,74.90
2018-01-02T15:09:52.376Z,75.21
2018-01-02T15:12:19.886Z,76.17
2018-01-02T15:14:47.444Z,75.91
2018-01-02T15:17:14.956Z,76.17
2018-01-02T15:19:42.477Z,75.65
2018-01-02T15:22:10.132Z,76.33
2018-01-02T15:24:37.673Z,77.33
2018-01-02T15:27:05.208Z,77.01
2018-01-02T15:29:32.736Z,78.01
2018-01-02T15:32:00.266Z,77.66
2018-01-02T15:34:27.797Z,78.01
2018-01-02T15:36:55.320Z,77.64
2018-01-02T15:39:23.057Z,77.74
2018-01-02T15:41:50.580Z,78.62
2018-01-02T15:44:18.161Z,78.97
2018-01-02T15:46:45.676Z,79.28
2018-01-02T15:49:13.209Z,78.98
2018-01-02T15:51:42.011Z,77.57
2018-01-02T15:54:09.565Z,77.13
2018-01-02T15:56:37.130Z,77.95
2018-01-02T15:59:04.674Z,79.08
2018-01-02T16:01:32.197Z,76.59
2018-01-02T16:03:59.732Z,79.00
2018-01-02T16:06:27.339Z,76.92
2018-01-02T16:08:54.896Z,76.06
2018-01-02T16:11:22.490Z,75.60
2018-01-02T16:13:49.994Z,77.05
2018-01-02T16:16:17.562Z,77.28
2018-01-02T16:18:45.084Z,78.09
2018-01-02T16:21:12.618Z,77.23
2018-01-02T16:23:40.292Z,78.09
2018-01-02T16:26:07.829Z,77.08
2018-01-02T16:28:35.342Z,78.13
2018-01-02T16:31:02.906Z,80.18
2018-01-02T16:33:30.478Z,80.11
2018-01-02T16:35:57.996Z,82.70
2018-01-02T16:38:25.527Z,79.60
2018-01-02T16:40:53.042Z,80.36
2018-01-02T16:43:20.565Z,82.11
2018-01-02T16:45:48.108Z,82.89
2018-01-02T16:48:15.644Z,82.25
2018-01-02T16:50:43.200Z,83.11
2018-01-02T16:53:10.736Z,84.07
2018-01-02T16:55:38.283Z,85.36
2018-01-02T16:58:05.811Z,86.12
2018-01-02T17:00:33.380Z,86.27
2018-01-02T17:03:00.920Z,82.80
2018-01-02T17:05:28.445Z,81.44
2018-01-02T17:07:55.981Z,80.40
2018-01-02T17:10:23.505Z,81.98
2018-01-02T17:12:51.027Z,84.09
2018-01-02T17:15:18.566Z,79.96
2018-01-02T17:17:46.141Z,81.02
2018-01-02T17:20:13.673Z,78.02
2018-01-02T17:22:41.551Z,77.40
2018-01-02T17:25:09.425Z,78.39
2018-01-02T17:27:37.290Z,78.14
2018-01-02T17:30:05.257Z,78.56
2018-01-02T17:32:33.124Z,77.27
2018-01-02T17:35:01.086Z,78.87
2018-01-02T17:37:29.174Z,75.92
2018-01-02T17:39:57.026Z,75.30
2018-01-02T17:42:24.997Z,75.09
2018-01-02T17:44:52.851Z,75.15
2018-01-02T17:47:20.834Z,74.16
2018-01-02T17:49:48.802Z,74.33
2018-01-02T17:52:16.610Z,75.60
2018-01-02T17:54:44.431Z,74.39
2018-01-02T17:57:12.097Z,75.60
2018-01-02T17:59:39.947Z,76.95
2018-01-02T18:02:07.616Z,75.42
2018-01-02T18:04:35.388Z,74.49
2018-01-02T18:07:03.042Z,75.59
2018-01-02T18:09:30.603Z,75.30
2018-01-02T18:11:58.207Z,73.90
2018-01-02T18:14:25.741Z,74.10
2018-01-02T18:16:53.326Z,76.30
2018-01-02T18:19:20.867Z,74.59
2018-01-02T18:21:48.406Z,75.20
2018-01-02T18:24:16.368Z,73.20
2018-01-02T18:26:44.135Z,72.85
2018-01-02T18:29:11.651Z,74.21
2018-01-02T18:31:40.573Z,72.01
2018-01-02T18:34:08.866Z,72.79
2018-01-02T18:36:36.913Z,73.06
2018-01-02T18:39:06.652Z,74.15
2018-01-02T18:41:34.820Z,74.77
2018-01-02T18:44:02.357Z,73.57
2018-01-02T18:46:29.875Z,74.37
2018-01-02T18:48:59.633Z,72.91
2018-01-02T18:51:27.206Z,72.19
2018-01-02T18:53:54.732Z,73.94
2018-01-02T18:56:23.127Z,75.01
2018-01-02T19:02:01.921Z,78.97
2018-01-02T19:04:57.100Z,80.13
2018-01-02T19:07:28.591Z,82.66
2018-01-02T19:09:56.622Z,77.99
2018-01-02T19:12:24.195Z,76.06
2018-01-02T19:14:51.721Z,77.74
2018-01-02T19:17:19.332Z,76.47
2018-01-02T19:19:47.041Z,76.75
2018-01-02T19:22:14.631Z,75.85
2018-01-02T19:24:42.151Z,74.79
2018-01-02T19:27:09.691Z,74.88
2018-01-02T19:29:38.007Z,74.76
2018-01-02T19:32:05.567Z,74.68
2018-01-02T19:34:34.098Z,74.87
2018-01-02T19:37:01.788Z,75.24
2018-01-02T19:39:29.312Z,75.46
2018-01-02T19:41:56.851Z,75.21
2018-01-02T19:44:24.390Z,76.23
2018-01-02T19:46:53.084Z,75.24
2018-01-02T19:49:20.735Z,74.44
2018-01-02T19:51:48.285Z,74.30
2018-01-02T19:54:15.962Z,74.38
2018-01-02T19:56:44.776Z,73.98
2018-01-02T19:59:12.407Z,73.23
2018-01-02T20:01:40.531Z,73.25
2018-01-02T20:04:09.222Z,72.93
2018-01-02T20:06:37.037Z,73.54
2018-01-02T20:09:05.205Z,73.84
2018-01-02T20:11:36.417Z,73.61
2018-01-02T20:14:04.416Z,74.00
2018-01-02T20:16:32.390Z,74.67
2018-01-02T20:19:00.155Z,75.96
2018-01-02T20:21:28.147Z,76.32
2018-01-02T20:23:56.594Z,77.68
2018-01-02T20:26:24.333Z,76.97
2018-01-02T20:28:51.997Z,76.81
2018-01-02T20:31:19.591Z,77.24
2018-01-02T20:33:47.172Z,77.93
2018-01-02T20:36:14.772Z,78.34
2018-01-02T20:38:43.496Z,75.63
2018-01-02T20:41:11.076Z,77.12
2018-01-02T20:43:38.663Z,76.86
2018-01-02T20:46:06.286Z,76.93
2018-01-02T20:48:34.029Z,76.20
2018-01-02T20:51:01.568Z,77.33
2018-01-02T20:53:29.101Z,77.74
2018-01-02T20:55:56.643Z,77.46
2018-01-02T20:58:24.193Z,77.61
2018-01-02T21:00:52.583Z,77.46
2018-01-02T21:03:21.438Z,76.39
2018-01-02T21:05:48.997Z,77.41
2018-01-02T21:08:16.571Z,77.31
2018-01-02T21:10:44.843Z,76.49
2018-01-02T21:13:12.416Z,76.30
2018-01-02T21:15:39.971Z,75.58
2018-01-02T21:18:07.498Z,76.60
2018-01-02T21:20:35.046Z,76.71
2018-01-02T21:23:02.927Z,73.00
2018-01-02T21:25:30.452Z,73.94
2018-01-02T21:27:58.666Z,75.17
2018-01-02T21:30:27.547Z,74.60
2018-01-02T21:32:55.085Z,73.45
2018-01-02T21:35:24.857Z,75.05
2018-01-02T21:38:00.475Z,75.58
2018-01-02T21:40:28.357Z,73.15
2018-01-02T21:42:55.908Z,74.74
2018-01-02T21:45:23.452Z,77.69
2018-01-02T21:47:51.635Z,78.87
2018-01-02T21:50:19.153Z,78.66
2018-01-02T21:52:47.393Z,80.04
2018-01-02T21:55:14.917Z,81.05
2018-01-02T21:57:43.451Z,80.81
2018-01-02T22:00:11.282Z,82.20
2018-01-02T22:02:38.817Z,82.42
2018-01-02T22:05:06.503Z,82.32
2018-01-02T22:07:35.324Z,82.87
2018-01-02T22:10:03.376Z,83.09
2018-01-02T22:12:30.907Z,82.63
2018-01-02T22:14:58.449Z,83.92
2018-01-02T22:17:25.977Z,81.86
2018-01-02T22:19:53.517Z,73.32
2018-01-02T22:22:21.660Z,73.38
2018-01-02T22:24:49.192Z,75.10
2018-01-02T22:27:17.393Z,71.27
2018-01-02T22:29:44.980Z,68.42
2018-01-02T22:32:13.042Z,71.19
2018-01-02T22:34:40.648Z,71.37
2018-01-02T22:37:08.181Z,70.14
2018-01-02T22:39:35.722Z,69.18
2018-01-02T22:42:03.283Z,67.62
2018-01-02T22:44:30.806Z,71.57
2018-01-02T22:46:58.315Z,69.45
2018-01-02T22:49:25.824Z,69.23
2018-01-02T22:51:53.336Z,69.82
2018-01-02T22:54:20.879Z,69.64
2018-01-02T22:56:48.440Z,70.82
2018-01-02T22:59:15.970Z,72.19
2018-01-02T23:01:43.502Z,72.27
2018-01-02T23:04:11.031Z,74.63
2018-01-02T23:06:38.587Z,74.38
2018-01-02T23:09:06.122Z,75.43
2018-01-02T23:11:33.635Z,75.32
2018-01-02T23:14:01.178Z,76.81
2018-01-02T23:16:28.683Z,75.41
2018-01-02T23:18:56.231Z,75.85
2018-01-02T23:21:23.768Z,76.50
2018-01-02T23:23:51.302Z,75.85
2018-01-02T23:26:18.836Z,74.65
2018-01-02T23:28:46.356Z,74.49
2018-01-02T23:31:13.911Z,75.17
2018-01-02T23:33:41.445Z,74.36
2018-01-02T23:36:08.971Z,74.10
2018-01-02T23:38:36.506Z,75.67
2018-01-02T23:41:04.022Z,76.89
2018-01-02T23:43:31.552Z,76.91
2018-01-02T23:45:59.065Z,76.70
2018-01-02T23:48:26.577Z,76.19
2018-01-02T23:50:54.069Z,76.50
2018-01-02T23:53:21.621Z,76.35
2018-01-02T23:55:49.128Z,76.85
2018-01-02T23:58:16.627Z,76.11
